sensor_id;sensor_type;location;lat;lon;timestamp;pressure;altitude;pressure_sealevel;temperature;humidity
72157;BME280;60035;52.122;5.406;2023-08-17T00:01:31;102259.72;;;18.07;97.12
72157;BME280;60035;52.122;5.406;2023-08-17T00:03:58;102256.25;;;18.07;97.19
72157;BME280;60035;52.122;5.406;2023-08-17T00:06:24;102260.72;;;18.03;97.39
72157;BME280;60035;52.122;5.406;2023-08-17T00:08:52;102262.53;;;18.01;97.95
72157;BME280;60035;52.122;5.406;2023-08-17T00:11:18;102257.41;;;18.00;98.08
72157;BME280;60035;52.122;5.406;2023-08-17T00:13:45;102250.59;;;17.97;98.68
72157;BME280;60035;52.122;5.406;2023-08-17T00:16:11;102258.44;;;17.95;99.06
72157;BME280;60035;52.122;5.406;2023-08-17T00:18:38;102262.03;;;17.91;99.36
72157;BME280;60035;52.122;5.406;2023-08-17T00:21:05;102257.78;;;17.89;99.70
72157;BME280;60035;52.122;5.406;2023-08-17T00:23:32;102256.94;;;17.88;99.46
72157;BME280;60035;52.122;5.406;2023-08-17T00:25:59;102255.28;;;17.86;100.00
72157;BME280;60035;52.122;5.406;2023-08-17T00:28:25;102252.03;;;17.80;100.00
72157;BME280;60035;52.122;5.406;2023-08-17T00:30:51;102255.47;;;17.81;100.00
72157;BME280;60035;52.122;5.406;2023-08-17T00:33:18;102246.06;;;17.78;100.00
72157;BME280;60035;52.122;5.406;2023-08-17T00:35:45;102253.72;;;17.81;100.00
72157;BME280;60035;52.122;5.406;2023-08-17T00:38:12;102248.66;;;17.78;100.00
72157;BME280;60035;52.122;5.406;2023-08-17T00:40:39;102252.28;;;17.74;100.00
72157;BME280;60035;52.122;5.406;2023-08-17T00:43:07;102241.13;;;17.72;100.00
72157;BME280;60035;52.122;5.406;2023-08-17T00:45:34;102250.72;;;17.70;100.00
72157;BME280;60035;52.122;5.406;2023-08-17T00:48:02;102249.97;;;17.67;100.00
72157;BME280;60035;52.122;5.406;2023-08-17T00:50:29;102244.78;;;17.67;100.00
72157;BME280;60035;52.122;5.406;2023-08-17T00:52:56;102243.09;;;17.65;100.00
72157;BME280;60035;52.122;5.406;2023-08-17T00:55:24;102242.28;;;17.63;100.00
72157;BME280;60035;52.122;5.406;2023-08-17T00:57:51;102253.56;;;17.62;100.00
72157;BME280;60035;52.122;5.406;2023-08-17T01:00:18;102249.34;;;17.60;100.00
72157;BME280;60035;52.122;5.406;2023-08-17T01:02:46;102247.66;;;17.59;100.00
72157;BME280;60035;52.122;5.406;2023-08-17T01:05:13;102247.66;;;17.59;100.00
72157;BME280;60035;52.122;5.406;2023-08-17T01:07:40;102241.72;;;17.55;100.00
72157;BME280;60035;52.122;5.406;2023-08-17T01:10:07;102243.63;;;17.52;100.00
72157;BME280;60035;52.122;5.406;2023-08-17T01:12:55;102248.00;;;17.49;100.00
72157;BME280;60035;52.122;5.406;2023-08-17T01:15:49;102251.41;;;17.50;100.00
72157;BME280;60035;52.122;5.406;2023-08-17T01:18:21;102248.00;;;17.49;100.00
72157;BME280;60035;52.122;5.406;2023-08-17T01:20:49;102248.00;;;17.49;100.00
72157;BME280;60035;52.122;5.406;2023-08-17T01:23:16;102243.69;;;17.48;100.00
72157;BME280;60035;52.122;5.406;2023-08-17T01:25:43;102235.94;;;17.48;100.00
72157;BME280;60035;52.122;5.406;2023-08-17T01:28:09;102233.47;;;17.45;100.00
72157;BME280;60035;52.122;5.406;2023-08-17T01:30:58;102231.84;;;17.43;100.00
72157;BME280;60035;52.122;5.406;2023-08-17T01:33:32;102230.19;;;17.40;100.00
72157;BME280;60035;52.122;5.406;2023-08-17T01:36:10;102230.31;;;17.37;100.00
72157;BME280;60035;52.122;5.406;2023-08-17T01:38:40;102231.22;;;17.36;100.00
72157;BME280;60035;52.122;5.406;2023-08-17T01:41:08;102230.41;;;17.34;100.00
72157;BME280;60035;52.122;5.406;2023-08-17T01:43:41;102233.75;;;17.38;100.00
72157;BME280;60035;52.122;5.406;2023-08-17T01:46:13;102234.56;;;17.38;100.00
72157;BME280;60035;52.122;5.406;2023-08-17T01:48:42;102234.69;;;17.35;100.00
72157;BME280;60035;52.122;5.406;2023-08-17T01:51:10;102231.41;;;17.30;100.00
72157;BME280;60035;52.122;5.406;2023-08-17T01:53:37;102233.13;;;17.31;100.00
72157;BME280;60035;52.122;5.406;2023-08-17T01:56:03;102224.59;;;17.27;100.00
72157;BME280;60035;52.122;5.406;2023-08-17T01:58:30;102224.53;;;17.29;100.00
72157;BME280;60035;52.122;5.406;2023-08-17T02:00:56;102228.94;;;17.27;100.00
72157;BME280;60035;52.122;5.406;2023-08-17T02:03:23;102222.97;;;17.25;100.00
72157;BME280;60035;52.122;5.406;2023-08-17T02:05:49;102225.69;;;17.22;100.00
72157;BME280;60035;52.122;5.406;2023-08-17T02:08:16;102219.75;;;17.18;100.00
72157;BME280;60035;52.122;5.406;2023-08-17T02:10:42;102223.34;;;17.14;100.00
72157;BME280;60035;52.122;5.406;2023-08-17T02:13:10;102220.94;;;17.09;100.00
72157;BME280;60035;52.122;5.406;2023-08-17T02:15:44;102223.63;;;17.06;100.00
72157;BME280;60035;52.122;5.406;2023-08-17T02:18:10;102230.59;;;17.04;100.00
72157;BME280;60035;52.122;5.406;2023-08-17T02:20:37;102237.50;;;17.04;100.00
72157;BME280;60035;52.122;5.406;2023-08-17T02:23:04;102236.63;;;17.05;100.00
72157;BME280;60035;52.122;5.406;2023-08-17T02:25:30;102240.16;;;17.02;100.00
72157;BME280;60035;52.122;5.406;2023-08-17T02:28:02;102234.13;;;17.02;100.00
72157;BME280;60035;52.122;5.406;2023-08-17T02:30:30;102232.44;;;17.01;100.00
72157;BME280;60035;52.122;5.406;2023-08-17T02:32:56;102227.31;;;16.99;100.00
72157;BME280;60035;52.122;5.406;2023-08-17T02:35:24;102223.84;;;17.00;100.00
72157;BME280;60035;52.122;5.406;2023-08-17T02:37:50;102225.50;;;17.01;100.00
72157;BME280;60035;52.122;5.406;2023-08-17T02:40:17;102223.78;;;17.02;100.00
72157;BME280;60035;52.122;5.406;2023-08-17T02:42:44;102220.34;;;17.01;100.00
72157;BME280;60035;52.122;5.406;2023-08-17T02:45:10;102224.56;;;17.04;100.00
72157;BME280;60035;52.122;5.406;2023-08-17T02:47:37;102214.34;;;17.01;100.00
72157;BME280;60035;52.122;5.406;2023-08-17T02:50:04;102209.97;;;17.01;100.00
72157;BME280;60035;52.122;5.406;2023-08-17T02:52:30;102208.34;;;16.98;100.00
72157;BME280;60035;52.122;5.406;2023-08-17T02:54:57;102204.94;;;16.98;100.00
72157;BME280;60035;52.122;5.406;2023-08-17T02:57:23;102202.34;;;16.98;100.00
72157;BME280;60035;52.122;5.406;2023-08-17T02:59:52;102210.94;;;16.98;100.00
72157;BME280;60035;52.122;5.406;2023-08-17T03:02:18;102213.63;;;16.95;100.00
72157;BME280;60035;52.122;5.406;2023-08-17T03:04:45;102211.06;;;16.95;100.00
72157;BME280;60035;52.122;5.406;2023-08-17T03:07:11;102204.25;;;16.93;100.00
72157;BME280;60035;52.122;5.406;2023-08-17T03:09:38;102203.34;;;16.94;100.00
72157;BME280;60035;52.122;5.406;2023-08-17T03:12:04;102212.00;;;16.93;100.00
72157;BME280;60035;52.122;5.406;2023-08-17T03:14:31;102203.41;;;16.92;100.00
72157;BME280;60035;52.122;5.406;2023-08-17T03:16:57;102206.81;;;16.93;100.00
72157;BME280;60035;52.122;5.406;2023-08-17T03:19:24;102213.75;;;16.92;100.00
72157;BME280;60035;52.122;5.406;2023-08-17T03:21:50;102202.47;;;16.93;100.00
72157;BME280;60035;52.122;5.406;2023-08-17T03:24:17;102202.47;;;16.95;100.00
72157;BME280;60035;52.122;5.406;2023-08-17T03:26:43;102204.25;;;16.93;100.00
72157;BME280;60035;52.122;5.406;2023-08-17T03:29:10;102199.19;;;16.90;100.00
72157;BME280;60035;52.122;5.406;2023-08-17T03:31:36;102206.03;;;16.89;100.00
72157;BME280;60035;52.122;5.406;2023-08-17T03:34:03;102198.28;;;16.89;100.00
72157;BME280;60035;52.122;5.406;2023-08-17T03:36:29;102200.09;;;16.87;100.00
72157;BME280;60035;52.122;5.406;2023-08-17T03:38:56;102197.56;;;16.86;100.00
72157;BME280;60035;52.122;5.406;2023-08-17T03:41:22;102197.59;;;16.84;100.00
72157;BME280;60035;52.122;5.406;2023-08-17T03:43:49;102206.34;;;16.81;100.00
72157;BME280;60035;52.122;5.406;2023-08-17T03:46:16;102196.81;;;16.82;100.00
72157;BME280;60035;52.122;5.406;2023-08-17T03:48:43;102199.41;;;16.82;100.00
72157;BME280;60035;52.122;5.406;2023-08-17T03:51:09;102197.75;;;16.79;100.00
72157;BME280;60035;52.122;5.406;2023-08-17T03:53:35;102195.13;;;16.81;100.00
72157;BME280;60035;52.122;5.406;2023-08-17T03:56:02;102200.28;;;16.81;100.00
72157;BME280;60035;52.122;5.406;2023-08-17T03:58:29;102196.00;;;16.80;100.00
72157;BME280;60035;52.122;5.406;2023-08-17T04:00:59;102202.13;;;16.77;100.00
72157;BME280;60035;52.122;5.406;2023-08-17T04:03:26;102191.84;;;16.76;100.00
72157;BME280;60035;52.122;5.406;2023-08-17T04:05:52;102190.16;;;16.75;100.00
72157;BME280;60035;52.122;5.406;2023-08-17T04:08:19;102200.56;;;16.73;100.00
72157;BME280;60035;52.122;5.406;2023-08-17T04:10:45;102200.50;;;16.75;100.00
72157;BME280;60035;52.122;5.406;2023-08-17T04:13:11;102211.72;;;16.75;100.00
72157;BME280;60035;52.122;5.406;2023-08-17T04:15:38;102207.38;;;16.76;100.00
72157;BME280;60035;52.122;5.406;2023-08-17T04:18:04;102210.81;;;16.76;100.00
72157;BME280;60035;52.122;5.406;2023-08-17T04:20:31;102208.22;;;16.76;100.00
72157;BME280;60035;52.122;5.406;2023-08-17T04:22:58;102208.16;;;16.78;100.00
72157;BME280;60035;52.122;5.406;2023-08-17T04:25:24;102202.13;;;16.77;100.00
72157;BME280;60035;52.122;5.406;2023-08-17T04:27:51;102206.34;;;16.80;100.00
72157;BME280;60035;52.122;5.406;2023-08-17T04:30:17;102194.38;;;16.77;100.00
72157;BME280;60035;52.122;5.406;2023-08-17T04:32:44;102203.94;;;16.75;100.00
72157;BME280;60035;52.122;5.406;2023-08-17T04:35:11;102198.72;;;16.77;100.00
72157;BME280;60035;52.122;5.406;2023-08-17T04:37:37;102201.31;;;16.77;100.00
72157;BME280;60035;52.122;5.406;2023-08-17T04:40:05;102189.25;;;16.76;100.00
72157;BME280;60035;52.122;5.406;2023-08-17T04:42:34;102195.31;;;16.75;100.00
72157;BME280;60035;52.122;5.406;2023-08-17T04:45:01;102195.38;;;16.73;100.00
72157;BME280;60035;52.122;5.406;2023-08-17T04:47:27;102199.59;;;16.76;100.00
72157;BME280;60035;52.122;5.406;2023-08-17T04:49:54;102196.00;;;16.80;100.00
72157;BME280;60035;52.122;5.406;2023-08-17T04:52:21;102186.47;;;16.82;100.00
72157;BME280;60035;52.122;5.406;2023-08-17T04:54:47;102189.88;;;16.82;100.00
72157;BME280;60035;52.122;5.406;2023-08-17T04:57:14;102192.41;;;16.84;100.00
72157;BME280;60035;52.122;5.406;2023-08-17T04:59:41;102198.34;;;16.88;100.00
72157;BME280;60035;52.122;5.406;2023-08-17T05:02:07;102200.00;;;16.90;100.00
72157;BME280;60035;52.122;5.406;2023-08-17T05:04:35;102188.78;;;16.91;100.00
72157;BME280;60035;52.122;5.406;2023-08-17T05:07:02;102192.19;;;16.92;100.00
72157;BME280;60035;52.122;5.406;2023-08-17T05:09:29;102188.78;;;16.91;100.00
72157;BME280;60035;52.122;5.406;2023-08-17T05:11:56;102187.88;;;16.92;100.00
72157;BME280;60035;52.122;5.406;2023-08-17T05:14:23;102182.66;;;16.94;100.00
72157;BME280;60035;52.122;5.406;2023-08-17T05:16:49;102187.81;;;16.94;100.00
72157;BME280;60035;52.122;5.406;2023-08-17T05:19:16;102181.78;;;16.93;100.00
72157;BME280;60035;52.122;5.406;2023-08-17T05:21:43;102178.41;;;16.91;100.00
72157;BME280;60035;52.122;5.406;2023-08-17T05:24:10;102180.06;;;16.94;100.00
72157;BME280;60035;52.122;5.406;2023-08-17T05:26:36;102185.28;;;16.92;100.00
72157;BME280;60035;52.122;5.406;2023-08-17T05:29:03;102184.44;;;16.92;100.00
72157;BME280;60035;52.122;5.406;2023-08-17T05:31:29;102180.13;;;16.92;100.00
72157;BME280;60035;52.122;5.406;2023-08-17T05:33:56;102187.66;;;16.98;100.00
72157;BME280;60035;52.122;5.406;2023-08-17T05:36:22;102183.28;;;17.01;100.00
72157;BME280;60035;52.122;5.406;2023-08-17T05:38:49;102186.56;;;17.06;100.00
72157;BME280;60035;52.122;5.406;2023-08-17T05:41:15;102187.94;;;17.14;100.00
72157;BME280;60035;52.122;5.406;2023-08-17T05:43:43;102184.38;;;17.19;100.00
72157;BME280;60035;52.122;5.406;2023-08-17T05:46:10;102180.72;;;17.24;100.00
72157;BME280;60035;52.122;5.406;2023-08-17T05:48:37;102187.34;;;17.31;100.00
72157;BME280;60035;52.122;5.406;2023-08-17T05:51:03;102183.81;;;17.34;100.00
72157;BME280;60035;52.122;5.406;2023-08-17T05:53:30;102180.25;;;17.37;100.00
72157;BME280;60035;52.122;5.406;2023-08-17T05:55:56;102180.88;;;17.43;100.00
72157;BME280;60035;52.122;5.406;2023-08-17T05:58:23;102196.19;;;17.49;100.00
72157;BME280;60035;52.122;5.406;2023-08-17T06:00:50;102191.75;;;17.53;100.00
72157;BME280;60035;52.122;5.406;2023-08-17T06:03:17;102194.97;;;17.60;100.00
72157;BME280;60035;52.122;5.406;2023-08-17T06:05:44;102202.53;;;17.64;100.00
72157;BME280;60035;52.122;5.406;2023-08-17T06:08:10;102202.53;;;17.64;100.00
72157;BME280;60035;52.122;5.406;2023-08-17T06:10:37;102208.63;;;17.63;100.00
72157;BME280;60035;52.122;5.406;2023-08-17T06:13:04;102216.28;;;17.67;100.00
72157;BME280;60035;52.122;5.406;2023-08-17T06:15:30;102217.03;;;17.70;100.00
72157;BME280;60035;52.122;5.406;2023-08-17T06:17:57;102220.50;;;17.69;100.00
72157;BME280;60035;52.122;5.406;2023-08-17T06:20:24;102223.03;;;17.71;100.00
72157;BME280;60035;52.122;5.406;2023-08-17T06:22:50;102219.50;;;17.73;100.00
72157;BME280;60035;52.122;5.406;2023-08-17T06:25:17;102234.09;;;17.76;100.00
72157;BME280;60035;52.122;5.406;2023-08-17T06:27:43;102221.00;;;17.79;100.00
72157;BME280;60035;52.122;5.406;2023-08-17T06:30:11;102214.13;;;17.78;100.00
72157;BME280;60035;52.122;5.406;2023-08-17T06:32:38;102225.91;;;17.87;100.00
72157;BME280;60035;52.122;5.406;2023-08-17T06:35:05;102228.34;;;17.90;100.00
72157;BME280;60035;52.122;5.406;2023-08-17T06:37:32;102222.16;;;17.95;100.00
72157;BME280;60035;52.122;5.406;2023-08-17T06:39:59;102221.97;;;18.00;100.00
72157;BME280;60035;52.122;5.406;2023-08-17T06:42:25;102221.22;;;17.96;100.00
72157;BME280;60035;52.122;5.406;2023-08-17T06:44:52;102226.41;;;17.96;100.00
72157;BME280;60035;52.122;5.406;2023-08-17T06:47:18;102226.31;;;18.00;100.00
72157;BME280;60035;52.122;5.406;2023-08-17T06:49:46;102223.66;;;18.01;100.00
72157;BME280;60035;52.122;5.406;2023-08-17T06:52:12;102233.06;;;18.04;100.00
72157;BME280;60035;52.122;5.406;2023-08-17T06:54:39;102227.75;;;18.07;100.00
72157;BME280;60035;52.122;5.406;2023-08-17T06:57:06;102222.56;;;18.07;100.00
72157;BME280;60035;52.122;5.406;2023-08-17T06:59:32;102226.78;;;18.09;100.00
72157;BME280;60035;52.122;5.406;2023-08-17T07:02:02;102219.53;;;18.18;100.00
72157;BME280;60035;52.122;5.406;2023-08-17T07:04:30;102225.59;;;18.18;100.00
72157;BME280;60035;52.122;5.406;2023-08-17T07:06:56;102228.25;;;18.17;100.00
72157;BME280;60035;52.122;5.406;2023-08-17T07:09:23;102222.09;;;18.19;100.00
72157;BME280;60035;52.122;5.406;2023-08-17T07:11:49;102223.72;;;18.22;100.00
72157;BME280;60035;52.122;5.406;2023-08-17T07:14:16;102223.59;;;18.25;100.00
72157;BME280;60035;52.122;5.406;2023-08-17T07:16:42;102215.44;;;18.34;100.00
72157;BME280;60035;52.122;5.406;2023-08-17T07:19:09;102224.72;;;18.40;100.00
72157;BME280;60035;52.122;5.406;2023-08-17T07:21:36;102221.88;;;18.46;100.00
72157;BME280;60035;52.122;5.406;2023-08-17T07:24:13;102228.44;;;18.55;100.00
72157;BME280;60035;52.122;5.406;2023-08-17T07:26:40;102223.66;;;18.66;100.00
72157;BME280;60035;52.122;5.406;2023-08-17T07:29:07;102229.50;;;18.71;99.85
72157;BME280;60035;52.122;5.406;2023-08-17T07:31:34;102226.44;;;18.82;99.47
72157;BME280;60035;52.122;5.406;2023-08-17T07:34:05;102225.34;;;18.89;99.39
72157;BME280;60035;52.122;5.406;2023-08-17T07:36:32;102231.09;;;18.96;98.75
72157;BME280;60035;52.122;5.406;2023-08-17T07:39:02;102219.47;;;19.05;98.27
72157;BME280;60035;52.122;5.406;2023-08-17T07:41:30;102219.44;;;19.25;96.95
72157;BME280;60035;52.122;5.406;2023-08-17T07:43:57;102222.06;;;19.44;96.59
72157;BME280;60035;52.122;5.406;2023-08-17T07:46:23;102221.38;;;19.60;94.94
72157;BME280;60035;52.122;5.406;2023-08-17T07:48:50;102224.44;;;19.68;94.07
72157;BME280;60035;52.122;5.406;2023-08-17T07:51:16;102210.47;;;19.71;93.48
72157;BME280;60035;52.122;5.406;2023-08-17T07:53:43;102210.91;;;19.80;93.56
72157;BME280;60035;52.122;5.406;2023-08-17T07:56:09;102227.09;;;19.87;92.90
72157;BME280;60035;52.122;5.406;2023-08-17T07:58:36;102221.03;;;19.87;92.20
72157;BME280;60035;52.122;5.406;2023-08-17T08:01:03;102227.47;;;19.97;93.05
72157;BME280;60035;52.122;5.406;2023-08-17T08:03:30;102230.81;;;20.18;91.51
72157;BME280;60035;52.122;5.406;2023-08-17T08:05:57;102233.69;;;20.31;90.83
72157;BME280;60035;52.122;5.406;2023-08-17T08:08:23;102230.63;;;20.40;90.06
72157;BME280;60035;52.122;5.406;2023-08-17T08:10:52;102232.16;;;20.44;89.53
72157;BME280;60035;52.122;5.406;2023-08-17T08:13:19;102226.50;;;20.54;89.45
72157;BME280;60035;52.122;5.406;2023-08-17T08:15:46;102221.41;;;20.70;89.29
72157;BME280;60035;52.122;5.406;2023-08-17T08:18:12;102221.59;;;20.65;87.49
72157;BME280;60035;52.122;5.406;2023-08-17T08:20:39;102229.84;;;20.56;86.44
72157;BME280;60035;52.122;5.406;2023-08-17T08:23:06;102223.44;;;20.45;87.30
72157;BME280;60035;52.122;5.406;2023-08-17T08:25:32;102222.91;;;20.39;88.38
72157;BME280;60035;52.122;5.406;2023-08-17T08:27:58;102224.56;;;20.40;88.78
72157;BME280;60035;52.122;5.406;2023-08-17T08:30:25;102216.38;;;20.47;88.66
72157;BME280;60035;52.122;5.406;2023-08-17T08:32:51;102223.91;;;20.54;88.65
72157;BME280;60035;52.122;5.406;2023-08-17T08:35:18;102226.78;;;20.47;88.22
72157;BME280;60035;52.122;5.406;2023-08-17T08:37:44;102224.19;;;20.47;88.40
72157;BME280;60035;52.122;5.406;2023-08-17T08:40:12;102232.16;;;20.44;88.26
72157;BME280;60035;52.122;5.406;2023-08-17T08:42:41;102224.81;;;20.35;88.47
72157;BME280;60035;52.122;5.406;2023-08-17T08:45:08;102228.09;;;20.39;88.62
72157;BME280;60035;52.122;5.406;2023-08-17T08:47:36;102219.91;;;20.46;88.52
72157;BME280;60035;52.122;5.406;2023-08-17T08:50:04;102215.69;;;20.44;88.20
72157;BME280;60035;52.122;5.406;2023-08-17T08:52:36;102213.09;;;20.44;88.32
72157;BME280;60035;52.122;5.406;2023-08-17T08:55:18;102218.44;;;20.58;87.75
72157;BME280;60035;52.122;5.406;2023-08-17T08:57:46;102218.31;;;20.61;87.37
72157;BME280;60035;52.122;5.406;2023-08-17T09:00:18;102217.97;;;20.69;86.70
72157;BME280;60035;52.122;5.406;2023-08-17T09:02:45;102211.03;;;20.68;86.84
72157;BME280;60035;52.122;5.406;2023-08-17T09:05:12;102212.78;;;20.68;86.32
72157;BME280;60035;52.122;5.406;2023-08-17T09:07:42;102207.47;;;20.71;86.71
72157;BME280;60035;52.122;5.406;2023-08-17T09:10:10;102212.03;;;20.66;86.05
72157;BME280;60035;52.122;5.406;2023-08-17T09:12:36;102209.25;;;20.69;86.67
72157;BME280;60035;52.122;5.406;2023-08-17T09:15:07;102202.03;;;20.75;86.27
72157;BME280;60035;52.122;5.406;2023-08-17T09:17:33;102202.47;;;20.84;86.46
72157;BME280;60035;52.122;5.406;2023-08-17T09:20:03;102197.56;;;20.95;85.87
72157;BME280;60035;52.122;5.406;2023-08-17T09:22:41;102195.69;;;21.14;86.30
72157;BME280;60035;52.122;5.406;2023-08-17T09:25:11;102198.41;;;21.45;85.07
72157;BME280;60035;52.122;5.406;2023-08-17T09:27:38;102196.16;;;21.55;83.98
72157;BME280;60035;52.122;5.406;2023-08-17T09:30:06;102197.31;;;21.49;83.50
72157;BME280;60035;52.122;5.406;2023-08-17T09:32:33;102189.50;;;21.49;83.17
72157;BME280;60035;52.122;5.406;2023-08-17T09:35:04;102186.50;;;21.57;83.91
72157;BME280;60035;52.122;5.406;2023-08-17T09:37:34;102188.94;;;21.76;83.73
72157;BME280;60035;52.122;5.406;2023-08-17T09:40:01;102187.59;;;21.85;81.92
72157;BME280;60035;52.122;5.406;2023-08-17T09:42:28;102189.28;;;21.86;81.72
72157;BME280;60035;52.122;5.406;2023-08-17T09:44:55;102180.34;;;21.90;81.21
72157;BME280;60035;52.122;5.406;2023-08-17T09:47:27;102181.44;;;21.86;81.51
72157;BME280;60035;52.122;5.406;2023-08-17T09:49:54;102176.34;;;21.99;80.61
72157;BME280;60035;52.122;5.406;2023-08-17T09:52:22;102186.16;;;21.95;80.58
72157;BME280;60035;52.122;5.406;2023-08-17T09:54:52;102183.03;;;21.88;80.78
72157;BME280;60035;52.122;5.406;2023-08-17T09:57:20;102185.13;;;21.82;81.05
72157;BME280;60035;52.122;5.406;2023-08-17T09:59:48;102179.91;;;21.82;80.27
72157;BME280;60035;52.122;5.406;2023-08-17T10:02:22;102179.88;;;21.67;80.44
72157;BME280;60035;52.122;5.406;2023-08-17T10:04:52;102179.59;;;21.72;81.19
72157;BME280;60035;52.122;5.406;2023-08-17T10:07:21;102174.63;;;21.83;80.76
72157;BME280;60035;52.122;5.406;2023-08-17T10:10:02;102172.69;;;21.87;80.94
72157;BME280;60035;52.122;5.406;2023-08-17T10:12:34;102167.31;;;21.90;80.56
72157;BME280;60035;52.122;5.406;2023-08-17T10:15:05;102172.84;;;21.84;80.77
72157;BME280;60035;52.122;5.406;2023-08-17T10:17:39;102166.13;;;21.79;80.46
72157;BME280;60035;52.122;5.406;2023-08-17T10:20:10;102170.19;;;21.69;80.60
72157;BME280;60035;52.122;5.406;2023-08-17T10:22:48;102162.69;;;21.63;81.03
72157;BME280;60035;52.122;5.406;2023-08-17T10:25:18;102167.56;;;21.69;81.27
72157;BME280;60035;52.122;5.406;2023-08-17T10:27:47;102162.03;;;21.75;81.46
72157;BME280;60035;52.122;5.406;2023-08-17T10:30:15;102165.31;;;21.79;81.31
72157;BME280;60035;52.122;5.406;2023-08-17T10:32:41;102156.59;;;21.94;81.13
72157;BME280;60035;52.122;5.406;2023-08-17T10:35:13;102155.16;;;22.05;80.39
72157;BME280;60035;52.122;5.406;2023-08-17T10:37:41;102152.34;;;22.08;79.58
72157;BME280;60035;52.122;5.406;2023-08-17T10:40:09;102156.59;;;21.94;79.91
72157;BME280;60035;52.122;5.406;2023-08-17T10:42:40;102163.41;;;21.97;79.95
72157;BME280;60035;52.122;5.406;2023-08-17T10:45:27;102156.00;;;21.89;80.03
72157;BME280;60035;52.122;5.406;2023-08-17T10:50:37;102165.72;;;21.71;81.09
72157;BME280;60035;52.122;5.406;2023-08-17T10:53:12;102163.34;;;21.83;81.49
72157;BME280;60035;52.122;5.406;2023-08-17T10:55:40;102163.69;;;21.92;80.72
72157;BME280;60035;52.122;5.406;2023-08-17T10:58:08;102164.28;;;21.98;80.90
72157;BME280;60035;52.122;5.406;2023-08-17T11:00:41;102164.81;;;22.03;80.21
72157;BME280;60035;52.122;5.406;2023-08-17T11:03:19;102157.09;;;22.01;80.31
72157;BME280;60035;52.122;5.406;2023-08-17T11:05:56;102158.19;;;21.97;80.19
72157;BME280;60035;52.122;5.406;2023-08-17T11:08:34;102153.16;;;21.94;80.16
72157;BME280;60035;52.122;5.406;2023-08-17T11:11:14;102153.84;;;21.98;80.24
72157;BME280;60035;52.122;5.406;2023-08-17T11:13:44;102146.25;;;21.93;80.30
72157;BME280;60035;52.122;5.406;2023-08-17T11:16:12;102154.91;;;22.09;81.22
72157;BME280;60035;52.122;5.406;2023-08-17T11:18:43;102148.38;;;22.17;80.09
72157;BME280;60035;52.122;5.406;2023-08-17T11:21:13;102153.50;;;22.18;80.10
72157;BME280;60035;52.122;5.406;2023-08-17T11:23:45;102146.25;;;22.23;80.42
72157;BME280;60035;52.122;5.406;2023-08-17T11:26:18;102147.66;;;22.29;79.45
72157;BME280;60035;52.122;5.406;2023-08-17T11:28:45;102154.09;;;22.23;79.07
72157;BME280;60035;52.122;5.406;2023-08-17T11:31:13;102150.38;;;22.27;79.34
72157;BME280;60035;52.122;5.406;2023-08-17T11:33:42;102153.41;;;22.36;79.57
72157;BME280;60035;52.122;5.406;2023-08-17T11:36:09;102159.47;;;22.36;78.98
72157;BME280;60035;52.122;5.406;2023-08-17T11:38:40;102160.13;;;22.24;78.61
72157;BME280;60035;52.122;5.406;2023-08-17T11:41:07;102160.03;;;22.11;79.70
72157;BME280;60035;52.122;5.406;2023-08-17T11:43:35;102155.81;;;22.08;79.97
72157;BME280;60035;52.122;5.406;2023-08-17T11:46:03;102155.91;;;22.07;80.00
72157;BME280;60035;52.122;5.406;2023-08-17T11:48:30;102154.31;;;22.04;80.48
72157;BME280;60035;52.122;5.406;2023-08-17T11:51:02;102151.19;;;22.13;79.52
72157;BME280;60035;52.122;5.406;2023-08-17T11:53:35;102142.81;;;22.23;79.79
72157;BME280;60035;52.122;5.406;2023-08-17T11:56:02;102151.47;;;22.23;79.26
72157;BME280;60035;52.122;5.406;2023-08-17T11:58:51;102138.34;;;22.25;79.90
72157;BME280;60035;52.122;5.406;2023-08-17T12:01:17;102136.41;;;22.28;79.53
72157;BME280;60035;52.122;5.406;2023-08-17T12:03:45;102145.63;;;22.34;78.67
72157;BME280;60035;52.122;5.406;2023-08-17T12:06:16;102143.06;;;22.18;78.89
72157;BME280;60035;52.122;5.406;2023-08-17T12:08:46;102151.38;;;22.25;79.92
72157;BME280;60035;52.122;5.406;2023-08-17T12:11:16;102145.16;;;22.27;79.37
72157;BME280;60035;52.122;5.406;2023-08-17T12:13:49;102140.94;;;22.25;79.14
72157;BME280;60035;52.122;5.406;2023-08-17T12:16:16;102140.66;;;22.15;79.61
72157;BME280;60035;52.122;5.406;2023-08-17T12:18:45;102142.38;;;22.00;80.88
72157;BME280;60035;52.122;5.406;2023-08-17T12:21:12;102141.09;;;22.07;80.98
72157;BME280;60035;52.122;5.406;2023-08-17T12:23:38;102139.16;;;22.11;81.10
72157;BME280;60035;52.122;5.406;2023-08-17T12:26:05;102144.00;;;22.17;80.85
72157;BME280;60035;52.122;5.406;2023-08-17T12:28:32;102140.47;;;22.18;80.49
72157;BME280;60035;52.122;5.406;2023-08-17T12:31:02;102144.03;;;22.32;80.61
72157;BME280;60035;52.122;5.406;2023-08-17T12:33:29;102142.59;;;22.42;80.05
72157;BME280;60035;52.122;5.406;2023-08-17T12:35:56;102140.75;;;22.44;79.67
72157;BME280;60035;52.122;5.406;2023-08-17T12:38:24;102141.59;;;22.44;79.54
72157;BME280;60035;52.122;5.406;2023-08-17T12:40:52;102140.28;;;22.37;80.09
72157;BME280;60035;52.122;5.406;2023-08-17T12:43:18;102147.47;;;22.48;79.17
72157;BME280;60035;52.122;5.406;2023-08-17T12:45:45;102144.47;;;22.40;79.51
72157;BME280;60035;52.122;5.406;2023-08-17T12:48:11;102144.72;;;22.35;79.65
72157;BME280;60035;52.122;5.406;2023-08-17T12:50:38;102141.63;;;22.28;79.29
72157;BME280;60035;52.122;5.406;2023-08-17T12:53:07;102150.06;;;22.18;80.13